createdAt,value
2023-04-25T00:01:57.690Z,8.90
2023-04-25T00:04:24.953Z,10.60
2023-04-25T00:06:53.443Z,6.40
2023-04-25T00:09:20.614Z,5.40
2023-04-25T00:11:47.554Z,5.80
2023-04-25T00:14:14.729Z,8.70
2023-04-25T00:16:42.468Z,6.00
2023-04-25T00:19:10.631Z,6.00
2023-04-25T00:21:41.494Z,7.70
2023-04-25T00:24:08.841Z,5.00
2023-04-25T00:26:36.653Z,3.80
2023-04-25T00:29:03.637Z,6.40
2023-04-25T00:31:31.367Z,6.80
2023-04-25T00:33:58.422Z,6.10
2023-04-25T00:36:25.929Z,5.80
2023-04-25T00:38:54.368Z,8.70
2023-04-25T00:41:21.560Z,7.20
2023-04-25T00:43:49.525Z,4.10
2023-04-25T00:46:16.848Z,4.40
2023-04-25T00:48:43.893Z,4.50
2023-04-25T00:51:10.848Z,4.10
2023-04-25T00:53:37.823Z,5.80
2023-04-25T00:56:05.280Z,4.00
2023-04-25T00:58:32.265Z,7.10
2023-04-25T01:00:59.232Z,5.60
2023-04-25T01:03:26.332Z,6.60
2023-04-25T01:05:53.490Z,8.00
2023-04-25T01:08:20.423Z,6.20
2023-04-25T01:10:47.384Z,5.50
2023-04-25T01:13:14.468Z,5.50
2023-04-25T01:15:41.456Z,6.60
2023-04-25T01:18:08.528Z,6.30
2023-04-25T01:20:35.528Z,5.60
2023-04-25T01:23:04.095Z,6.60
2023-04-25T01:25:32.047Z,6.20
2023-04-25T01:27:59.794Z,3.60
2023-04-25T01:30:27.589Z,8.50
2023-04-25T01:32:58.649Z,4.10
2023-04-25T01:35:26.093Z,4.20
2023-04-25T01:37:56.173Z,5.10
2023-04-25T01:40:23.895Z,4.30
2023-04-25T01:42:51.209Z,7.10
2023-04-25T01:45:18.850Z,8.80
2023-04-25T01:47:50.133Z,7.90
2023-04-25T01:52:46.027Z,9.60
2023-04-25T01:55:13.434Z,5.50
2023-04-25T01:57:49.153Z,6.00
2023-04-25T02:00:16.720Z,6.30
2023-04-25T02:02:43.759Z,7.10
2023-04-25T02:05:22.786Z,6.50
2023-04-25T02:07:49.903Z,6.20
2023-04-25T02:10:16.912Z,9.10
2023-04-25T02:12:55.697Z,8.90
2023-04-25T02:15:38.330Z,6.90
2023-04-25T02:18:17.363Z,8.80
2023-04-25T02:20:45.273Z,4.80
2023-04-25T02:23:12.320Z,10.90
2023-04-25T02:25:39.282Z,6.10
2023-04-25T02:28:06.269Z,5.20
2023-04-25T02:30:33.319Z,10.50
2023-04-25T02:33:01.445Z,8.60
2023-04-25T02:35:29.958Z,7.10
2023-04-25T02:37:56.894Z,7.10
2023-04-25T02:40:23.862Z,11.50
2023-04-25T02:42:50.855Z,5.30
2023-04-25T02:45:19.447Z,8.20
2023-04-25T02:47:46.509Z,6.20
2023-04-25T02:50:13.477Z,8.40
2023-04-25T02:52:40.588Z,6.90
2023-04-25T02:55:14.821Z,4.90
2023-04-25T02:57:41.825Z,5.20
2023-04-25T03:00:12.827Z,6.30
2023-04-25T03:02:39.864Z,7.30
2023-04-25T03:05:07.077Z,6.70
2023-04-25T03:07:34.437Z,6.10
2023-04-25T03:10:01.434Z,9.60
2023-04-25T03:12:28.916Z,9.10
2023-04-25T03:14:55.909Z,6.70
2023-04-25T03:17:22.952Z,8.50
2023-04-25T03:19:50.266Z,5.00
2023-04-25T03:22:17.317Z,6.30
2023-04-25T03:24:44.344Z,6.30
2023-04-25T03:27:11.418Z,7.50
2023-04-25T03:29:38.608Z,7.90
2023-04-25T03:32:06.511Z,5.00
2023-04-25T03:34:33.524Z,6.80
2023-04-25T03:37:01.123Z,7.70
2023-04-25T03:39:28.514Z,6.40
2023-04-25T03:41:56.598Z,8.10
2023-04-25T03:44:25.361Z,7.90
2023-04-25T03:46:52.399Z,6.20
2023-04-25T03:49:19.644Z,7.30
2023-04-25T03:52:01.632Z,6.40
2023-04-25T03:54:30.967Z,6.10
2023-04-25T03:57:06.909Z,7.20
2023-04-25T03:59:35.905Z,9.20
2023-04-25T04:02:03.621Z,5.60
2023-04-25T04:04:32.113Z,7.00
2023-04-25T04:07:00.800Z,7.70
2023-04-25T04:09:31.108Z,6.40
2023-04-25T04:11:59.828Z,7.50
2023-04-25T04:14:27.170Z,8.10
2023-04-25T04:16:55.466Z,8.50
2023-04-25T04:19:22.949Z,4.30
2023-04-25T04:22:08.553Z,4.50
2023-04-25T04:24:36.276Z,7.60
2023-04-25T04:27:07.043Z,4.90
2023-04-25T04:29:40.266Z,5.60
2023-04-25T04:32:12.910Z,5.60
2023-04-25T04:34:40.845Z,6.30
2023-04-25T04:37:08.185Z,5.00
2023-04-25T04:39:36.537Z,6.10
2023-04-25T04:42:13.818Z,7.70
2023-04-25T04:44:56.169Z,6.70
2023-04-25T04:47:37.966Z,7.60
2023-04-25T04:50:23.868Z,6.40
2023-04-25T04:53:09.463Z,7.70
2023-04-25T04:55:39.399Z,6.90
2023-04-25T04:58:22.803Z,5.80
2023-04-25T05:01:13.199Z,5.10
2023-04-25T05:04:05.660Z,6.10
2023-04-25T05:07:08.466Z,4.10
2023-04-25T05:10:01.588Z,5.20
2023-04-25T05:12:36.346Z,8.20
2023-04-25T05:15:22.070Z,5.40
2023-04-25T05:18:23.575Z,6.90
2023-04-25T05:21:10.990Z,6.30
2023-04-25T05:23:47.495Z,7.10
2023-04-25T05:26:46.558Z,4.00
2023-04-25T05:29:39.950Z,4.30
2023-04-25T05:32:16.575Z,7.00
2023-04-25T05:34:44.294Z,5.60
2023-04-25T05:37:20.453Z,7.70
2023-04-25T05:39:55.933Z,4.50
2023-04-25T05:42:45.862Z,4.40
2023-04-25T05:45:31.465Z,8.40
2023-04-25T05:48:09.791Z,4.00
2023-04-25T05:50:49.766Z,5.60
2023-04-25T05:53:34.989Z,4.70
2023-04-25T05:56:03.044Z,5.80
2023-04-25T05:58:30.369Z,5.60
2023-04-25T06:00:59.306Z,4.60
2023-04-25T06:03:26.636Z,6.60
2023-04-25T06:05:53.804Z,7.80
2023-04-25T06:08:21.110Z,5.80
2023-04-25T06:10:48.115Z,6.90
2023-04-25T06:13:15.312Z,5.70
2023-04-25T06:15:42.382Z,5.10
2023-04-25T06:18:09.544Z,6.40
2023-04-25T06:20:36.613Z,4.40
2023-04-25T06:23:03.712Z,4.30
2023-04-25T06:25:53.932Z,4.30
2023-04-25T06:28:23.144Z,3.80
2023-04-25T06:30:50.141Z,4.00
2023-04-25T06:33:18.694Z,4.30
2023-04-25T06:35:46.005Z,4.40
2023-04-25T06:38:14.249Z,7.10
2023-04-25T06:40:43.838Z,5.40
2023-04-25T06:43:11.452Z,5.70
2023-04-25T06:46:04.573Z,4.30
2023-04-25T06:48:33.168Z,4.60
2023-04-25T06:51:00.207Z,4.80
2023-04-25T06:53:27.336Z,4.00
2023-04-25T06:58:31.128Z,4.10
2023-04-25T07:01:01.004Z,2.70
2023-04-25T07:03:28.566Z,6.70
2023-04-25T07:05:59.436Z,3.40
2023-04-25T07:08:26.574Z,5.70
2023-04-25T07:10:53.675Z,3.90
2023-04-25T07:13:21.146Z,6.30
2023-04-25T07:15:49.338Z,2.80
2023-04-25T07:18:17.175Z,4.90
2023-04-25T07:20:44.164Z,5.00
2023-04-25T07:23:11.515Z,5.00
2023-04-25T07:25:39.093Z,5.40
2023-04-25T07:28:06.294Z,5.40
2023-04-25T07:30:33.298Z,5.40
2023-04-25T07:33:04.157Z,6.40
2023-04-25T07:35:31.153Z,4.30
2023-04-25T07:37:58.376Z,6.40
2023-04-25T07:40:25.702Z,5.90
2023-04-25T07:42:59.605Z,6.50
2023-04-25T07:45:38.673Z,5.60
2023-04-25T07:48:06.048Z,4.30
2023-04-25T07:50:33.710Z,5.70
2023-04-25T07:53:01.123Z,7.40
2023-04-25T07:58:13.009Z,5.70
2023-04-25T08:00:41.304Z,6.10
2023-04-25T08:03:40.776Z,4.10
2023-04-25T08:06:14.133Z,5.30
2023-04-25T08:08:51.806Z,5.90
2023-04-25T08:11:20.300Z,5.70
2023-04-25T08:13:47.269Z,4.10
2023-04-25T08:16:14.422Z,3.70
2023-04-25T08:18:41.514Z,4.50
2023-04-25T08:21:10.061Z,4.70
2023-04-25T08:23:37.102Z,4.70
2023-04-25T08:26:12.440Z,9.10
2023-04-25T08:28:39.536Z,7.00
2023-04-25T08:31:07.327Z,4.50
2023-04-25T08:33:41.671Z,4.40
2023-04-25T08:36:31.615Z,6.10
2023-04-25T08:39:06.421Z,4.50
2023-04-25T08:41:34.813Z,5.50
2023-04-25T08:44:02.154Z,4.30
2023-04-25T08:46:29.518Z,7.70
2023-04-25T08:49:16.751Z,6.60
2023-04-25T08:51:51.695Z,6.70
2023-04-25T08:54:34.486Z,4.00
2023-04-25T08:57:03.427Z,8.80
2023-04-25T08:59:31.221Z,3.90
2023-04-25T09:01:58.768Z,5.00
2023-04-25T09:04:26.289Z,4.10
2023-04-25T09:06:53.587Z,4.80
2023-04-25T09:09:20.727Z,4.50
2023-04-25T09:11:47.706Z,5.40
2023-04-25T09:14:19.269Z,3.10
2023-04-25T09:17:05.897Z,6.70
2023-04-25T09:19:42.172Z,4.50
2023-04-25T09:22:23.917Z,4.00
2023-04-25T09:24:52.366Z,5.60
2023-04-25T09:27:24.054Z,3.50
2023-04-25T09:30:04.164Z,4.40
2023-04-25T09:33:04.796Z,4.60
2023-04-25T09:35:36.066Z,4.50
2023-04-25T09:38:07.924Z,4.10
2023-04-25T09:40:53.425Z,6.10
2023-04-25T09:43:40.824Z,3.10
2023-04-25T09:46:12.492Z,5.60
2023-04-25T09:48:55.031Z,5.30
2023-04-25T09:51:31.368Z,5.30
2023-04-25T09:53:58.974Z,2.80
2023-04-25T09:56:33.163Z,3.90
2023-04-25T09:59:01.434Z,6.00
2023-04-25T10:01:28.473Z,5.00
2023-04-25T10:04:03.518Z,3.50
2023-04-25T10:06:45.273Z,4.50
2023-04-25T10:09:12.855Z,9.30
2023-04-25T10:11:39.954Z,5.10
2023-04-25T10:14:07.410Z,6.00
2023-04-25T10:16:34.357Z,4.00
2023-04-25T10:19:01.373Z,3.20
2023-04-25T10:21:28.626Z,4.20
2023-04-25T10:23:55.586Z,6.20
2023-04-25T10:26:23.167Z,8.70
2023-04-25T10:28:57.900Z,4.40
2023-04-25T10:31:24.896Z,4.80
2023-04-25T10:33:52.508Z,5.00
2023-04-25T10:36:20.590Z,4.80
2023-04-25T10:38:48.740Z,4.30
2023-04-25T10:41:15.758Z,4.30
2023-04-25T10:43:43.933Z,4.80
2023-04-25T10:46:20.846Z,5.80
2023-04-25T10:48:49.755Z,5.80
2023-04-25T10:51:24.582Z,5.60
2023-04-25T10:54:04.532Z,5.00
2023-04-25T10:56:42.621Z,3.70
2023-04-25T10:59:17.320Z,2.80
2023-04-25T11:01:48.318Z,4.70
2023-04-25T11:04:25.264Z,4.80
2023-04-25T11:07:10.889Z,2.60
2023-04-25T11:09:41.205Z,4.80
2023-04-25T11:12:12.984Z,6.90
2023-04-25T11:17:12.910Z,4.50
2023-04-25T11:19:40.030Z,3.60
2023-04-25T11:22:07.934Z,4.00
2023-04-25T11:24:36.543Z,4.10
2023-04-25T11:27:03.948Z,5.40
2023-04-25T11:29:31.781Z,6.00
2023-04-25T11:31:59.571Z,5.50
2023-04-25T11:34:27.156Z,3.10
2023-04-25T11:36:54.567Z,5.60
2023-04-25T11:39:21.575Z,8.60
2023-04-25T11:41:48.723Z,4.70
2023-04-25T11:44:19.762Z,4.90
2023-04-25T11:46:47.120Z,3.10
2023-04-25T11:49:14.893Z,3.80
2023-04-25T11:51:42.855Z,5.10
2023-04-25T11:54:10.215Z,5.50
2023-04-25T11:56:37.179Z,5.50
2023-04-25T11:59:05.841Z,8.60
2023-04-25T12:01:35.415Z,7.00
2023-04-25T12:04:25.398Z,8.00
2023-04-25T12:06:54.880Z,3.30
2023-04-25T12:09:28.434Z,3.80
2023-04-25T12:11:56.483Z,3.80
2023-04-25T12:14:32.488Z,5.30
2023-04-25T12:17:00.535Z,3.90
2023-04-25T12:19:28.040Z,4.20
2023-04-25T12:21:58.561Z,5.60
2023-04-25T12:24:28.682Z,6.20
2023-04-25T12:27:03.583Z,7.10
2023-04-25T12:29:47.906Z,7.60
2023-04-25T12:32:17.126Z,3.40
2023-04-25T12:34:44.090Z,5.40
2023-04-25T12:37:11.566Z,7.00
2023-04-25T12:39:38.814Z,5.60
2023-04-25T12:42:09.344Z,5.90
2023-04-25T12:44:36.775Z,4.60
2023-04-25T12:47:04.940Z,6.80
2023-04-25T12:49:33.252Z,3.30
2023-04-25T12:52:01.369Z,5.20
2023-04-25T12:54:29.349Z,7.00
2023-04-25T12:56:57.313Z,5.00
2023-04-25T12:59:25.193Z,3.80
2023-04-25T13:01:53.971Z,7.40
2023-04-25T13:04:23.052Z,9.40
2023-04-25T13:06:51.190Z,6.80
2023-04-25T13:09:19.075Z,4.00
2023-04-25T13:11:47.506Z,9.40
2023-04-25T13:14:15.152Z,6.70
2023-04-25T13:16:42.844Z,5.60
2023-04-25T13:19:12.790Z,5.50
2023-04-25T13:21:40.105Z,6.30
2023-04-25T13:24:07.740Z,8.20
2023-04-25T13:26:35.041Z,5.70
2023-04-25T13:29:04.960Z,6.20
2023-04-25T13:31:32.757Z,4.60
2023-04-25T13:34:00.040Z,5.20
2023-04-25T13:36:27.475Z,5.60
2023-04-25T13:38:54.613Z,5.60
2023-04-25T13:41:21.854Z,9.10
2023-04-25T13:43:49.594Z,7.30
2023-04-25T13:46:35.349Z,7.30
2023-04-25T13:49:12.305Z,8.40
2023-04-25T13:51:40.962Z,6.80
2023-04-25T13:54:08.916Z,6.40
2023-04-25T13:56:36.862Z,6.90
2023-04-25T13:59:04.250Z,4.80
2023-04-25T14:01:35.698Z,6.50
2023-04-25T14:06:33.299Z,8.90
2023-04-25T14:09:02.378Z,7.90
2023-04-25T14:11:30.016Z,5.80
2023-04-25T14:13:57.582Z,4.90
2023-04-25T14:16:25.564Z,7.00
2023-04-25T14:18:53.376Z,6.00
2023-04-25T14:21:22.030Z,8.20
2023-04-25T14:23:49.958Z,4.50
2023-04-25T14:26:18.011Z,4.80
2023-04-25T14:28:45.623Z,5.50
2023-04-25T14:31:13.329Z,8.50
2023-04-25T14:33:43.883Z,7.80
2023-04-25T14:36:11.974Z,4.70
2023-04-25T14:38:39.701Z,4.60
2023-04-25T14:41:07.478Z,5.20
2023-04-25T14:43:35.019Z,7.60
2023-04-25T14:46:03.285Z,6.40
2023-04-25T14:48:31.273Z,6.70
2023-04-25T14:50:58.973Z,9.60
2023-04-25T14:53:26.544Z,6.80
2023-04-25T14:55:54.175Z,4.90
2023-04-25T14:58:21.726Z,6.30
2023-04-25T15:00:49.346Z,8.40
2023-04-25T15:03:18.530Z,4.70
2023-04-25T15:05:46.514Z,8.00
2023-04-25T15:08:14.101Z,6.70
2023-04-25T15:10:41.753Z,5.10
2023-04-25T15:13:09.566Z,5.70
2023-04-25T15:15:37.292Z,6.80
2023-04-25T15:18:05.024Z,5.50
2023-04-25T15:20:33.078Z,4.30
2023-04-25T15:23:00.884Z,9.10
2023-04-25T15:25:30.158Z,5.60
2023-04-25T15:27:57.723Z,5.40
2023-04-25T15:30:25.290Z,7.40
2023-04-25T15:32:53.125Z,5.90
2023-04-25T15:35:20.730Z,7.60
2023-04-25T15:37:48.342Z,7.20
2023-04-25T15:40:16.680Z,8.30
2023-04-25T15:42:48.542Z,6.90
2023-04-25T15:45:18.161Z,7.60
2023-04-25T15:47:45.949Z,7.40
2023-04-25T15:50:14.157Z,7.80
2023-04-25T15:52:42.702Z,8.20
2023-04-25T15:55:10.670Z,5.70
2023-04-25T15:57:39.486Z,5.00
2023-04-25T16:00:14.021Z,6.60
2023-04-25T16:02:42.274Z,8.20
2023-04-25T16:05:11.729Z,7.20
2023-04-25T16:07:43.248Z,8.40
2023-04-25T16:10:11.966Z,5.40
2023-04-25T16:12:40.268Z,5.80
2023-04-25T16:15:08.722Z,8.60
2023-04-25T16:17:36.809Z,6.30
2023-04-25T16:20:10.630Z,6.40
2023-04-25T16:22:39.305Z,5.00
2023-04-25T16:25:07.661Z,15.80
2023-04-25T16:27:35.903Z,9.60
2023-04-25T16:30:04.244Z,7.80
2023-04-25T16:32:32.141Z,7.50
2023-04-25T16:34:59.991Z,9.90
2023-04-25T16:37:28.242Z,7.70
2023-04-25T16:39:56.219Z,6.50
2023-04-25T16:42:24.133Z,7.80
2023-04-25T16:44:52.096Z,7.60
2023-04-25T16:47:20.697Z,7.10
2023-04-25T16:49:48.786Z,7.60
2023-04-25T16:52:16.910Z,8.80
2023-04-25T16:54:44.809Z,6.20
2023-04-25T16:57:12.987Z,6.80
2023-04-25T16:59:40.958Z,6.80
2023-04-25T17:02:11.911Z,6.80
2023-04-25T17:04:42.208Z,8.40
2023-04-25T17:07:10.129Z,6.80
2023-04-25T17:09:38.117Z,6.20
2023-04-25T17:12:07.747Z,8.20
2023-04-25T17:14:37.328Z,8.20
2023-04-25T17:17:05.526Z,8.50
2023-04-25T17:19:33.565Z,6.50
2023-04-25T17:22:02.059Z,7.80
2023-04-25T17:24:30.004Z,7.40
2023-04-25T17:26:57.970Z,5.70
2023-04-25T17:29:27.407Z,7.00
2023-04-25T17:31:57.672Z,8.50
2023-04-25T17:34:27.178Z,8.40
2023-04-25T17:36:55.325Z,6.20
2023-04-25T17:39:24.365Z,8.10
2023-04-25T17:41:52.784Z,11.40
2023-04-25T17:44:22.540Z,9.30
2023-04-25T17:46:50.453Z,6.30
2023-04-25T17:49:18.372Z,13.10
2023-04-25T17:51:46.360Z,8.80
2023-04-25T17:54:15.326Z,13.90
2023-04-25T17:56:45.382Z,5.80
2023-04-25T17:59:13.429Z,9.80
2023-04-25T18:01:45.571Z,9.90
2023-04-25T18:04:15.477Z,7.30
2023-04-25T18:06:45.634Z,8.40
2023-04-25T18:09:19.242Z,8.90
2023-04-25T18:11:47.846Z,5.20
2023-04-25T18:14:16.096Z,8.50
2023-04-25T18:16:44.745Z,9.70
2023-04-25T18:19:16.030Z,8.70
2023-04-25T18:21:44.624Z,9.40
2023-04-25T18:24:13.613Z,8.00
2023-04-25T18:26:41.627Z,5.70
2023-04-25T18:29:14.013Z,8.90
2023-04-25T18:31:49.374Z,6.40
2023-04-25T18:34:19.830Z,10.50
2023-04-25T18:36:48.899Z,8.50
2023-04-25T18:39:22.276Z,8.60
2023-04-25T18:41:58.803Z,10.40
2023-04-25T18:44:34.178Z,8.60
2023-04-25T18:47:02.433Z,9.20
2023-04-25T18:49:30.389Z,13.70
2023-04-25T18:51:58.677Z,7.60
2023-04-25T18:54:26.834Z,8.20
2023-04-25T18:56:56.376Z,6.80
2023-04-25T18:59:25.443Z,10.90
2023-04-25T19:01:54.593Z,9.20
2023-04-25T19:04:24.599Z,12.20
2023-04-25T19:06:52.875Z,9.10
2023-04-25T19:09:20.937Z,6.60
2023-04-25T19:11:48.819Z,7.90
2023-04-25T19:14:17.910Z,7.00
2023-04-25T19:16:46.358Z,7.50
2023-04-25T19:19:14.429Z,6.60
2023-04-25T19:21:42.591Z,10.10
2023-04-25T19:24:10.580Z,11.70
2023-04-25T19:26:39.623Z,8.40
2023-04-25T19:29:13.030Z,9.30
2023-04-25T19:31:43.621Z,6.90
2023-04-25T19:34:11.895Z,10.80
2023-04-25T19:36:40.806Z,6.60
2023-04-25T19:39:08.817Z,8.10
2023-04-25T19:41:37.861Z,6.10
2023-04-25T19:44:09.421Z,8.20
2023-04-25T19:49:08.975Z,9.30
2023-04-25T19:51:37.812Z,10.80
2023-04-25T19:54:05.814Z,12.00
2023-04-25T19:56:33.858Z,9.20
2023-04-25T19:59:01.940Z,11.50
2023-04-25T20:01:30.096Z,7.30
2023-04-25T20:03:58.043Z,7.20
2023-04-25T20:06:25.711Z,7.60
2023-04-25T20:08:55.971Z,12.60
2023-04-25T20:11:23.172Z,6.90
2023-04-25T20:13:50.442Z,9.00
2023-04-25T20:16:20.080Z,10.70
2023-04-25T20:18:48.464Z,9.20
2023-04-25T20:21:17.115Z,12.70
2023-04-25T20:23:44.420Z,8.40
2023-04-25T20:26:12.791Z,9.40
2023-04-25T20:28:39.958Z,9.30
2023-04-25T20:31:07.218Z,10.70
2023-04-25T20:33:35.357Z,8.20
2023-04-25T20:36:02.409Z,8.90
2023-04-25T20:38:29.353Z,9.30
2023-04-25T20:40:56.682Z,9.30
2023-04-25T20:43:23.733Z,13.20
2023-04-25T20:45:50.978Z,10.20
2023-04-25T20:48:18.296Z,15.10
2023-04-25T20:50:46.381Z,10.40
2023-04-25T20:53:13.788Z,9.00
2023-04-25T20:55:42.095Z,14.00
2023-04-25T20:58:09.138Z,7.10
2023-04-25T21:00:36.477Z,16.30
2023-04-25T21:03:05.168Z,8.20
2023-04-25T21:05:32.427Z,12.90
2023-04-25T21:07:59.480Z,9.80
2023-04-25T21:10:26.724Z,11.60
2023-04-25T21:12:55.910Z,12.70
2023-04-25T21:15:22.964Z,11.50
2023-04-25T21:17:50.261Z,9.50
2023-04-25T21:20:18.244Z,11.70
2023-04-25T21:22:54.283Z,8.20
2023-04-25T21:25:29.183Z,15.10
2023-04-25T21:27:56.396Z,11.70
2023-04-25T21:30:24.069Z,14.50
2023-04-25T21:32:51.456Z,14.10
2023-04-25T21:35:19.549Z,10.50
2023-04-25T21:37:46.713Z,9.00
2023-04-25T21:40:14.324Z,10.90
2023-04-25T21:42:46.009Z,9.30
2023-04-25T21:45:13.030Z,14.80
2023-04-25T21:47:40.002Z,9.20
2023-04-25T21:50:08.093Z,13.80
2023-04-25T21:52:38.285Z,10.40
2023-04-25T21:55:05.919Z,12.00
2023-04-25T21:57:32.899Z,13.50
2023-04-25T21:59:59.846Z,13.90
2023-04-25T22:02:29.660Z,12.70
2023-04-25T22:04:56.950Z,10.40
2023-04-25T22:07:23.955Z,12.10
2023-04-25T22:09:54.927Z,12.20
2023-04-25T22:12:23.628Z,13.20
2023-04-25T22:14:51.188Z,11.40
2023-04-25T22:17:19.066Z,11.30
2023-04-25T22:19:47.105Z,12.90
2023-04-25T22:22:14.364Z,11.90
2023-04-25T22:24:42.373Z,12.50
2023-04-25T22:27:11.127Z,9.00
2023-04-25T22:29:38.165Z,11.50
2023-04-25T22:32:05.358Z,14.70
2023-04-25T22:34:32.355Z,10.20
2023-04-25T22:36:59.743Z,12.10
2023-04-25T22:39:26.849Z,16.60
2023-04-25T22:41:54.505Z,11.90
2023-04-25T22:44:22.456Z,12.80
2023-04-25T22:46:49.518Z,10.00
2023-04-25T22:49:17.430Z,10.80
2023-04-25T22:51:44.546Z,9.00
2023-04-25T22:54:11.484Z,9.60
2023-04-25T22:56:38.419Z,11.40
2023-04-25T22:59:05.342Z,13.50
2023-04-25T23:01:32.327Z,15.20
2023-04-25T23:03:59.761Z,14.90
2023-04-25T23:06:27.020Z,14.60
2023-04-25T23:08:54.137Z,14.30
2023-04-25T23:11:21.961Z,12.00
2023-04-25T23:13:48.935Z,12.80
2023-04-25T23:16:16.265Z,11.00
2023-04-25T23:18:43.312Z,10.60
2023-04-25T23:21:11.556Z,10.40
2023-04-25T23:23:38.876Z,14.00
2023-04-25T23:26:11.883Z,11.00
2023-04-25T23:28:41.608Z,11.90
2023-04-25T23:31:09.696Z,11.90
2023-04-25T23:33:36.753Z,14.00
2023-04-25T23:36:03.949Z,11.50
2023-04-25T23:38:31.080Z,9.60
2023-04-25T23:40:58.122Z,12.40
2023-04-25T23:43:25.104Z,12.10
2023-04-25T23:45:52.167Z,8.10
2023-04-25T23:48:19.209Z,12.30
2023-04-25T23:50:46.160Z,15.90
2023-04-25T23:53:13.293Z,10.30
2023-04-25T23:55:40.867Z,11.40
2023-04-25T23:58:08.143Z,16.00
